sensor_id;sensor_type;location;lat;lon;timestamp;pressure;altitude;pressure_sealevel;temperature;humidity
52535;BME280;38443;53.164;5.802;2023-10-09T00:02:13;102173.75;;;13.46;100.00
52535;BME280;38443;53.164;5.802;2023-10-09T00:04:40;102169.34;;;13.44;100.00
52535;BME280;38443;53.164;5.802;2023-10-09T00:07:11;102164.84;;;13.44;100.00
52535;BME280;38443;53.164;5.802;2023-10-09T00:09:37;102158.56;;;13.44;100.00
52535;BME280;38443;53.164;5.802;2023-10-09T00:12:19;102150.47;;;13.45;100.00
52535;BME280;38443;53.164;5.802;2023-10-09T00:14:51;102146.94;;;13.43;100.00
52535;BME280;38443;53.164;5.802;2023-10-09T00:17:21;102140.69;;;13.41;100.00
52535;BME280;38443;53.164;5.802;2023-10-09T00:19:47;102137.09;;;13.41;100.00
52535;BME280;38443;53.164;5.802;2023-10-09T00:22:16;102123.63;;;13.42;100.00
52535;BME280;38443;53.164;5.802;2023-10-09T00:24:55;102118.25;;;13.42;100.00
52535;BME280;38443;53.164;5.802;2023-10-09T00:27:41;102116.50;;;13.41;100.00
52535;BME280;38443;53.164;5.802;2023-10-09T00:30:11;102122.75;;;13.42;100.00
52535;BME280;38443;53.164;5.802;2023-10-09T00:32:40;102121.88;;;13.41;100.00
52535;BME280;38443;53.164;5.802;2023-10-09T00:35:17;102117.38;;;13.42;100.00
52535;BME280;38443;53.164;5.802;2023-10-09T00:38:01;102129.09;;;13.39;100.00
52535;BME280;38443;53.164;5.802;2023-10-09T00:40:33;102124.59;;;13.40;100.00
52535;BME280;38443;53.164;5.802;2023-10-09T00:43:02;102124.59;;;13.40;100.00
52535;BME280;38443;53.164;5.802;2023-10-09T00:45:32;102113.84;;;13.40;100.00
52535;BME280;38443;53.164;5.802;2023-10-09T00:47:58;102119.22;;;13.40;100.00
52535;BME280;38443;53.164;5.802;2023-10-09T00:50:27;102111.13;;;13.41;100.00
52535;BME280;38443;53.164;5.802;2023-10-09T00:53:00;102115.66;;;13.39;100.00
52535;BME280;38443;53.164;5.802;2023-10-09T00:55:33;102123.66;;;13.41;100.00
52535;BME280;38443;53.164;5.802;2023-10-09T00:58:09;102120.13;;;13.39;100.00
52535;BME280;38443;53.164;5.802;2023-10-09T01:00:38;102121.94;;;13.38;100.00
52535;BME280;38443;53.164;5.802;2023-10-09T01:03:10;102107.59;;;13.38;100.00
52535;BME280;38443;53.164;5.802;2023-10-09T01:05:39;102110.28;;;13.38;100.00
52535;BME280;38443;53.164;5.802;2023-10-09T01:08:17;102109.44;;;13.35;100.00
52535;BME280;38443;53.164;5.802;2023-10-09T01:10:51;102103.13;;;13.36;100.00
52535;BME280;38443;53.164;5.802;2023-10-09T01:13:25;102085.22;;;13.35;100.00
52535;BME280;38443;53.164;5.802;2023-10-09T01:16:09;102090.53;;;13.39;100.00
52535;BME280;38443;53.164;5.802;2023-10-09T01:18:44;102084.28;;;13.38;100.00
52535;BME280;38443;53.164;5.802;2023-10-09T01:21:10;102092.34;;;13.38;100.00
52535;BME280;38443;53.164;5.802;2023-10-09T01:23:46;102096.84;;;13.38;100.00
52535;BME280;38443;53.164;5.802;2023-10-09T01:26:32;102086.13;;;13.34;100.00
52535;BME280;38443;53.164;5.802;2023-10-09T01:31:49;102078.16;;;13.31;100.00
52535;BME280;38443;53.164;5.802;2023-10-09T01:34:24;102082.56;;;13.34;100.00
52535;BME280;38443;53.164;5.802;2023-10-09T01:36:51;102064.63;;;13.34;100.00
52535;BME280;38443;53.164;5.802;2023-10-09T01:39:19;102060.09;;;13.36;100.00
52535;BME280;38443;53.164;5.802;2023-10-09T01:41:52;102060.94;;;13.39;100.00
52535;BME280;38443;53.164;5.802;2023-10-09T01:44:32;102057.34;;;13.40;100.00
52535;BME280;38443;53.164;5.802;2023-10-09T01:47:04;102064.47;;;13.42;100.00
52535;BME280;38443;53.164;5.802;2023-10-09T01:49:37;102064.47;;;13.42;100.00
52535;BME280;38443;53.164;5.802;2023-10-09T01:52:03;102059.06;;;13.44;100.00
52535;BME280;38443;53.164;5.802;2023-10-09T01:54:35;102056.41;;;13.42;100.00
52535;BME280;38443;53.164;5.802;2023-10-09T01:57:10;102058.13;;;13.45;100.00
52535;BME280;38443;53.164;5.802;2023-10-09T01:59:41;102051.00;;;13.42;100.00
52535;BME280;38443;53.164;5.802;2023-10-09T02:02:12;102055.53;;;13.42;100.00
52535;BME280;38443;53.164;5.802;2023-10-09T02:04:55;102050.13;;;13.42;100.00
52535;BME280;38443;53.164;5.802;2023-10-09T02:07:34;102051.88;;;13.43;100.00
52535;BME280;38443;53.164;5.802;2023-10-09T02:10:13;102050.13;;;13.42;100.00
52535;BME280;38443;53.164;5.802;2023-10-09T02:13:03;102048.41;;;13.39;100.00
52535;BME280;38443;53.164;5.802;2023-10-09T02:15:34;102052.03;;;13.36;100.00
52535;BME280;38443;53.164;5.802;2023-10-09T02:18:17;102044.88;;;13.37;100.00
52535;BME280;38443;53.164;5.802;2023-10-09T02:21:12;102041.34;;;13.33;100.00
52535;BME280;38443;53.164;5.802;2023-10-09T02:23:38;102038.72;;;13.30;100.00
52535;BME280;38443;53.164;5.802;2023-10-09T02:26:12;102036.97;;;13.29;100.00
52535;BME280;38443;53.164;5.802;2023-10-09T02:28:57;102036.03;;;13.30;100.00
52535;BME280;38443;53.164;5.802;2023-10-09T02:31:30;102029.78;;;13.30;100.00
52535;BME280;38443;53.164;5.802;2023-10-09T02:34:08;102019.00;;;13.28;100.00
52535;BME280;38443;53.164;5.802;2023-10-09T02:36:33;102024.47;;;13.25;100.00
52535;BME280;38443;53.164;5.802;2023-10-09T02:39:12;102010.97;;;13.27;100.00
52535;BME280;38443;53.164;5.802;2023-10-09T02:41:55;102014.56;;;13.27;100.00
52535;BME280;38443;53.164;5.802;2023-10-09T02:44:27;102020.88;;;13.25;100.00
52535;BME280;38443;53.164;5.802;2023-10-09T02:47:04;102026.25;;;13.25;100.00
52535;BME280;38443;53.164;5.802;2023-10-09T02:49:31;102026.31;;;13.23;100.00
52535;BME280;38443;53.164;5.802;2023-10-09T02:51:56;102024.53;;;13.22;100.00
52535;BME280;38443;53.164;5.802;2023-10-09T02:54:21;102022.72;;;13.23;100.00
52535;BME280;38443;53.164;5.802;2023-10-09T02:56:48;102004.84;;;13.20;100.00
52535;BME280;38443;53.164;5.802;2023-10-09T02:59:21;102005.72;;;13.21;100.00
52535;BME280;38443;53.164;5.802;2023-10-09T03:01:50;102002.09;;;13.23;100.00
52535;BME280;38443;53.164;5.802;2023-10-09T03:04:19;102005.59;;;13.27;100.00
52535;BME280;38443;53.164;5.802;2023-10-09T03:06:45;101993.94;;;13.29;100.00
52535;BME280;38443;53.164;5.802;2023-10-09T03:09:20;101991.13;;;13.34;100.00
52535;BME280;38443;53.164;5.802;2023-10-09T03:11:53;101995.53;;;13.38;100.00
52535;BME280;38443;53.164;5.802;2023-10-09T03:14:20;101995.41;;;13.43;100.00
52535;BME280;38443;53.164;5.802;2023-10-09T03:16:48;101999.84;;;13.45;100.00
52535;BME280;38443;53.164;5.802;2023-10-09T03:19:14;101989.88;;;13.49;100.00
52535;BME280;38443;53.164;5.802;2023-10-09T03:21:39;101996.06;;;13.54;100.00
52535;BME280;38443;53.164;5.802;2023-10-09T03:24:06;102004.06;;;13.57;100.00
52535;BME280;38443;53.164;5.802;2023-10-09T03:26:33;102005.78;;;13.61;100.00
52535;BME280;38443;53.164;5.802;2023-10-09T03:28:58;102011.91;;;13.66;100.00
52535;BME280;38443;53.164;5.802;2023-10-09T03:31:27;102011.88;;;13.68;100.00
52535;BME280;38443;53.164;5.802;2023-10-09T03:33:56;102018.00;;;13.74;100.00
52535;BME280;38443;53.164;5.802;2023-10-09T03:36:21;102021.34;;;13.86;100.00
52535;BME280;38443;53.164;5.802;2023-10-09T03:38:46;102019.50;;;13.86;100.00
52535;BME280;38443;53.164;5.802;2023-10-09T03:41:12;102021.19;;;13.92;100.00
52535;BME280;38443;53.164;5.802;2023-10-09T03:43:39;102030.00;;;13.97;100.00
52535;BME280;38443;53.164;5.802;2023-10-09T03:46:09;102029.94;;;14.00;100.00
52535;BME280;38443;53.164;5.802;2023-10-09T03:48:58;102024.50;;;14.03;100.00
52535;BME280;38443;53.164;5.802;2023-10-09T03:51:27;102023.50;;;14.07;100.00
52535;BME280;38443;53.164;5.802;2023-10-09T03:53:52;102026.06;;;14.12;100.00
52535;BME280;38443;53.164;5.802;2023-10-09T03:56:18;102026.03;;;14.13;100.00
52535;BME280;38443;53.164;5.802;2023-10-09T03:58:45;102030.41;;;14.18;100.00
52535;BME280;38443;53.164;5.802;2023-10-09T04:01:16;102031.28;;;14.20;100.00
52535;BME280;38443;53.164;5.802;2023-10-09T04:03:49;102036.59;;;14.21;100.00
52535;BME280;38443;53.164;5.802;2023-10-09T04:06:21;102029.38;;;14.23;100.00
52535;BME280;38443;53.164;5.802;2023-10-09T04:08:46;102039.22;;;14.24;100.00
52535;BME280;38443;53.164;5.802;2023-10-09T04:11:16;102029.38;;;14.23;100.00
52535;BME280;38443;53.164;5.802;2023-10-09T04:13:45;102025.72;;;14.26;100.00
52535;BME280;38443;53.164;5.802;2023-10-09T04:16:15;102022.16;;;14.25;100.00
52535;BME280;38443;53.164;5.802;2023-10-09T04:18:56;102023.03;;;14.26;100.00
52535;BME280;38443;53.164;5.802;2023-10-09T04:21:25;102032.00;;;14.26;100.00
52535;BME280;38443;53.164;5.802;2023-10-09T04:24:04;102035.53;;;14.28;100.00
52535;BME280;38443;53.164;5.802;2023-10-09T04:26:43;102040.84;;;14.31;100.00
52535;BME280;38443;53.164;5.802;2023-10-09T04:29:12;102039.84;;;14.35;100.00
52535;BME280;38443;53.164;5.802;2023-10-09T04:31:54;102037.06;;;14.39;100.00
52535;BME280;38443;53.164;5.802;2023-10-09T04:34:23;102035.31;;;14.38;100.00
52535;BME280;38443;53.164;5.802;2023-10-09T04:36:56;102020.06;;;14.35;100.00
52535;BME280;38443;53.164;5.802;2023-10-09T04:39:53;102021.00;;;14.35;100.00
52535;BME280;38443;53.164;5.802;2023-10-09T04:42:48;102029.06;;;14.35;100.00
52535;BME280;38443;53.164;5.802;2023-10-09T04:45:23;102031.75;;;14.35;100.00
52535;BME280;38443;53.164;5.802;2023-10-09T04:48:27;102043.31;;;14.39;100.00
52535;BME280;38443;53.164;5.802;2023-10-09T04:50:59;102044.25;;;14.38;100.00
52535;BME280;38443;53.164;5.802;2023-10-09T04:53:43;102045.94;;;14.42;100.00
52535;BME280;38443;53.164;5.802;2023-10-09T04:56:27;102048.66;;;14.41;100.00
52535;BME280;38443;53.164;5.802;2023-10-09T04:58:57;102043.22;;;14.44;100.00
52535;BME280;38443;53.164;5.802;2023-10-09T05:01:29;102041.44;;;14.43;100.00
52535;BME280;38443;53.164;5.802;2023-10-09T05:04:02;102039.69;;;14.42;100.00
52535;BME280;38443;53.164;5.802;2023-10-09T05:06:29;102044.13;;;14.43;100.00
52535;BME280;38443;53.164;5.802;2023-10-09T05:09:20;102046.84;;;14.41;100.00
52535;BME280;38443;53.164;5.802;2023-10-09T05:11:46;102061.16;;;14.43;100.00
52535;BME280;38443;53.164;5.802;2023-10-09T05:14:18;102069.31;;;14.42;100.00
52535;BME280;38443;53.164;5.802;2023-10-09T05:16:52;102063.94;;;14.42;100.00
52535;BME280;38443;53.164;5.802;2023-10-09T05:19:22;102074.72;;;14.40;100.00
52535;BME280;38443;53.164;5.802;2023-10-09T05:22:05;102068.47;;;14.40;100.00
52535;BME280;38443;53.164;5.802;2023-10-09T05:24:43;102056.78;;;14.39;100.00
52535;BME280;38443;53.164;5.802;2023-10-09T05:27:12;102069.38;;;14.39;100.00
52535;BME280;38443;53.164;5.802;2023-10-09T05:29:44;102079.25;;;14.40;100.00
52535;BME280;38443;53.164;5.802;2023-10-09T05:32:25;102079.28;;;14.38;100.00
52535;BME280;38443;53.164;5.802;2023-10-09T05:35:00;102086.41;;;14.39;100.00
52535;BME280;38443;53.164;5.802;2023-10-09T05:37:27;102088.09;;;14.43;100.00
52535;BME280;38443;53.164;5.802;2023-10-09T05:40:03;102100.63;;;14.46;100.00
52535;BME280;38443;53.164;5.802;2023-10-09T05:42:41;102098.75;;;14.49;100.00
52535;BME280;38443;53.164;5.802;2023-10-09T05:45:14;102099.63;;;14.50;100.00
52535;BME280;38443;53.164;5.802;2023-10-09T05:47:47;102099.59;;;14.51;100.00
52535;BME280;38443;53.164;5.802;2023-10-09T05:50:20;102100.44;;;14.53;100.00
52535;BME280;38443;53.164;5.802;2023-10-09T05:52:52;102088.69;;;14.58;100.00
52535;BME280;38443;53.164;5.802;2023-10-09T05:55:19;102095.84;;;14.59;100.00
52535;BME280;38443;53.164;5.802;2023-10-09T05:57:45;102086.88;;;14.58;100.00
52535;BME280;38443;53.164;5.802;2023-10-09T06:00:29;102091.38;;;14.58;100.00
52535;BME280;38443;53.164;5.802;2023-10-09T06:03:12;102078.81;;;14.56;100.00
52535;BME280;38443;53.164;5.802;2023-10-09T06:05:48;102078.81;;;14.56;100.00
52535;BME280;38443;53.164;5.802;2023-10-09T06:08:28;102079.72;;;14.55;100.00
52535;BME280;38443;53.164;5.802;2023-10-09T06:11:13;102083.31;;;14.58;100.00
52535;BME280;38443;53.164;5.802;2023-10-09T06:14:01;102085.06;;;14.59;100.00
52535;BME280;38443;53.164;5.802;2023-10-09T06:16:39;102081.34;;;14.63;100.00
52535;BME280;38443;53.164;5.802;2023-10-09T06:19:09;102082.31;;;14.62;100.00
52535;BME280;38443;53.164;5.802;2023-10-09T06:21:39;102084.91;;;14.65;100.00
52535;BME280;38443;53.164;5.802;2023-10-09T06:24:07;102093.84;;;14.65;100.00
52535;BME280;38443;53.164;5.802;2023-10-09T06:26:43;102086.66;;;14.67;100.00
52535;BME280;38443;53.164;5.802;2023-10-09T06:29:33;102094.75;;;14.66;100.00
52535;BME280;38443;53.164;5.802;2023-10-09T06:32:04;102092.03;;;14.67;100.00
52535;BME280;38443;53.164;5.802;2023-10-09T06:34:46;102083.03;;;14.67;100.00
52535;BME280;38443;53.164;5.802;2023-10-09T06:37:24;102079.50;;;14.65;100.00
52535;BME280;38443;53.164;5.802;2023-10-09T06:39:50;102053.44;;;14.65;100.00
52535;BME280;38443;53.164;5.802;2023-10-09T06:42:16;102049.03;;;14.63;100.00
52535;BME280;38443;53.164;5.802;2023-10-09T06:47:30;102050.91;;;14.59;100.00
52535;BME280;38443;53.164;5.802;2023-10-09T06:50:09;102048.28;;;14.58;100.00
52535;BME280;38443;53.164;5.802;2023-10-09T06:52:51;102041.06;;;14.58;100.00
52535;BME280;38443;53.164;5.802;2023-10-09T06:55:43;102034.84;;;14.56;100.00
52535;BME280;38443;53.164;5.802;2023-10-09T06:58:19;102028.53;;;14.55;100.00
52535;BME280;38443;53.164;5.802;2023-10-09T07:00:54;102032.16;;;14.54;100.00
52535;BME280;38443;53.164;5.802;2023-10-09T07:03:23;102024.94;;;14.55;100.00
52535;BME280;38443;53.164;5.802;2023-10-09T07:08:50;102030.31;;;14.56;100.00
52535;BME280;38443;53.164;5.802;2023-10-09T07:14:25;102038.41;;;14.56;100.00
52535;BME280;38443;53.164;5.802;2023-10-09T07:17:03;102051.88;;;14.56;100.00
52535;BME280;38443;53.164;5.802;2023-10-09T07:19:50;102068.00;;;14.58;100.00
52535;BME280;38443;53.164;5.802;2023-10-09T07:22:16;102069.72;;;14.61;100.00
52535;BME280;38443;53.164;5.802;2023-10-09T07:24:44;102082.31;;;14.62;100.00
52535;BME280;38443;53.164;5.802;2023-10-09T07:27:16;102089.41;;;14.64;100.00
52535;BME280;38443;53.164;5.802;2023-10-09T07:29:41;102095.66;;;14.66;100.00
52535;BME280;38443;53.164;5.802;2023-10-09T07:32:13;102100.13;;;14.67;100.00
52535;BME280;38443;53.164;5.802;2023-10-09T07:34:45;102101.84;;;14.70;100.00
52535;BME280;38443;53.164;5.802;2023-10-09T07:37:29;102117.06;;;14.71;100.00
52535;BME280;38443;53.164;5.802;2023-10-09T07:39:59;102121.56;;;14.72;100.00
52535;BME280;38443;53.164;5.802;2023-10-09T07:42:25;102121.56;;;14.72;100.00
52535;BME280;38443;53.164;5.802;2023-10-09T07:45:12;102129.59;;;14.73;100.00
52535;BME280;38443;53.164;5.802;2023-10-09T07:47:58;102132.25;;;14.75;100.00
52535;BME280;38443;53.164;5.802;2023-10-09T07:50:35;102140.25;;;14.78;100.00
52535;BME280;38443;53.164;5.802;2023-10-09T07:53:09;102143.84;;;14.79;100.00
52535;BME280;38443;53.164;5.802;2023-10-09T07:55:46;102152.78;;;14.79;100.00
52535;BME280;38443;53.164;5.802;2023-10-09T07:58:25;102158.16;;;14.81;100.00
52535;BME280;38443;53.164;5.802;2023-10-09T08:00:59;102150.94;;;14.81;100.00
52535;BME280;38443;53.164;5.802;2023-10-09T08:03:42;102166.25;;;14.81;100.00
52535;BME280;38443;53.164;5.802;2023-10-09T08:06:11;102157.19;;;14.83;100.00
52535;BME280;38443;53.164;5.802;2023-10-09T08:08:55;102172.47;;;14.83;100.00
52535;BME280;38443;53.164;5.802;2023-10-09T08:11:44;102173.34;;;14.83;100.00
52535;BME280;38443;53.164;5.802;2023-10-09T08:14:13;102170.66;;;14.83;100.00
52535;BME280;38443;53.164;5.802;2023-10-09T08:16:57;102175.13;;;14.84;100.00
52535;BME280;38443;53.164;5.802;2023-10-09T08:19:43;102166.09;;;14.85;100.00
52535;BME280;38443;53.164;5.802;2023-10-09T08:22:30;102169.59;;;14.90;100.00
52535;BME280;38443;53.164;5.802;2023-10-09T08:24:56;102176.78;;;14.90;100.00
52535;BME280;38443;53.164;5.802;2023-10-09T08:27:26;102177.66;;;14.92;100.00
52535;BME280;38443;53.164;5.802;2023-10-09T08:30:05;102197.31;;;14.95;100.00
52535;BME280;38443;53.164;5.802;2023-10-09T08:32:50;102191.97;;;14.94;100.00
52535;BME280;38443;53.164;5.802;2023-10-09T08:35:31;102186.41;;;15.00;100.00
52535;BME280;38443;53.164;5.802;2023-10-09T08:38:11;102190.00;;;14.99;100.00
52535;BME280;38443;53.164;5.802;2023-10-09T08:40:39;102185.47;;;15.01;100.00
52535;BME280;38443;53.164;5.802;2023-10-09T08:43:10;102192.56;;;15.05;100.00
52535;BME280;38443;53.164;5.802;2023-10-09T08:45:41;102191.63;;;15.06;100.00
52535;BME280;38443;53.164;5.802;2023-10-09T08:48:10;102187.16;;;15.05;100.00
52535;BME280;38443;53.164;5.802;2023-10-09T08:50:43;102183.53;;;15.08;100.00
52535;BME280;38443;53.164;5.802;2023-10-09T08:53:13;102187.94;;;15.10;100.00
52535;BME280;38443;53.164;5.802;2023-10-09T08:55:40;102187.06;;;15.10;100.00
52535;BME280;38443;53.164;5.802;2023-10-09T08:58:07;102198.69;;;15.12;100.00
52535;BME280;38443;53.164;5.802;2023-10-09T09:00:44;102191.44;;;15.14;100.00
52535;BME280;38443;53.164;5.802;2023-10-09T09:03:15;102187.69;;;15.20;100.00
52535;BME280;38443;53.164;5.802;2023-10-09T09:05:58;102188.47;;;15.23;100.00
52535;BME280;38443;53.164;5.802;2023-10-09T09:08:28;102189.31;;;15.25;100.00
52535;BME280;38443;53.164;5.802;2023-10-09T09:11:16;102199.00;;;15.34;100.00
52535;BME280;38443;53.164;5.802;2023-10-09T09:13:46;102197.13;;;15.36;100.00
52535;BME280;38443;53.164;5.802;2023-10-09T09:16:19;102209.69;;;15.37;100.00
52535;BME280;38443;53.164;5.802;2023-10-09T09:19:08;102211.44;;;15.40;100.00
52535;BME280;38443;53.164;5.802;2023-10-09T09:21:35;102213.19;;;15.41;100.00
52535;BME280;38443;53.164;5.802;2023-10-09T09:24:07;102225.66;;;15.45;100.00
52535;BME280;38443;53.164;5.802;2023-10-09T09:26:42;102230.09;;;15.47;100.00
52535;BME280;38443;53.164;5.802;2023-10-09T09:29:14;102245.34;;;15.50;100.00
52535;BME280;38443;53.164;5.802;2023-10-09T09:31:54;102233.53;;;15.54;100.00
52535;BME280;38443;53.164;5.802;2023-10-09T09:34:20;102239.72;;;15.58;100.00
52535;BME280;38443;53.164;5.802;2023-10-09T09:36:55;102240.50;;;15.61;100.00
52535;BME280;38443;53.164;5.802;2023-10-09T09:39:22;102237.81;;;15.61;100.00
52535;BME280;38443;53.164;5.802;2023-10-09T09:41:54;102241.28;;;15.66;100.00
52535;BME280;38443;53.164;5.802;2023-10-09T09:44:22;102229.47;;;15.70;100.00
52535;BME280;38443;53.164;5.802;2023-10-09T09:46:51;102223.94;;;15.75;100.00
52535;BME280;38443;53.164;5.802;2023-10-09T09:49:19;102216.66;;;15.79;100.00
52535;BME280;38443;53.164;5.802;2023-10-09T09:51:47;102223.69;;;15.84;100.00
52535;BME280;38443;53.164;5.802;2023-10-09T09:54:13;102223.69;;;15.84;100.00
52535;BME280;38443;53.164;5.802;2023-10-09T09:56:44;102217.41;;;15.84;100.00
52535;BME280;38443;53.164;5.802;2023-10-09T09:59:10;102220.06;;;15.85;100.00
52535;BME280;38443;53.164;5.802;2023-10-09T10:01:46;102220.16;;;15.82;100.00
52535;BME280;38443;53.164;5.802;2023-10-09T10:04:25;102221.97;;;15.82;100.00
52535;BME280;38443;53.164;5.802;2023-10-09T10:06:52;102207.63;;;15.80;100.00
52535;BME280;38443;53.164;5.802;2023-10-09T10:09:40;102218.38;;;15.81;100.00
52535;BME280;38443;53.164;5.802;2023-10-09T10:12:09;102222.91;;;15.81;100.00
52535;BME280;38443;53.164;5.802;2023-10-09T10:17:24;102223.84;;;15.80;100.00
52535;BME280;38443;53.164;5.802;2023-10-09T10:19:59;102221.13;;;15.80;100.00
52535;BME280;38443;53.164;5.802;2023-10-09T10:22:28;102223.88;;;15.78;100.00
52535;BME280;38443;53.164;5.802;2023-10-09T10:24:55;102213.03;;;15.80;100.00
52535;BME280;38443;53.164;5.802;2023-10-09T10:27:23;102212.94;;;15.83;100.00
52535;BME280;38443;53.164;5.802;2023-10-09T10:32:57;102223.25;;;16.00;100.00
52535;BME280;38443;53.164;5.802;2023-10-09T10:35:23;102218.63;;;16.03;100.00
52535;BME280;38443;53.164;5.802;2023-10-09T10:37:58;102212.34;;;16.03;100.00
52535;BME280;38443;53.164;5.802;2023-10-09T10:40:40;102200.47;;;16.08;100.00
52535;BME280;38443;53.164;5.802;2023-10-09T10:43:18;102192.19;;;16.14;100.00
52535;BME280;38443;53.164;5.802;2023-10-09T10:46:07;102181.84;;;16.27;100.00
52535;BME280;38443;53.164;5.802;2023-10-09T10:48:52;102172.59;;;16.36;100.00
52535;BME280;38443;53.164;5.802;2023-10-09T10:51:28;102172.44;;;16.41;100.00
52535;BME280;38443;53.164;5.802;2023-10-09T10:54:23;102173.28;;;16.43;100.00
52535;BME280;38443;53.164;5.802;2023-10-09T10:57:21;102167.81;;;16.44;100.00
52535;BME280;38443;53.164;5.802;2023-10-09T11:00:10;102176.97;;;16.40;100.00
52535;BME280;38443;53.164;5.802;2023-10-09T11:02:58;102174.47;;;16.34;100.00
52535;BME280;38443;53.164;5.802;2023-10-09T11:05:40;102184.53;;;16.29;100.00
52535;BME280;38443;53.164;5.802;2023-10-09T11:08:09;102182.00;;;16.23;100.00
52535;BME280;38443;53.164;5.802;2023-10-09T11:10:35;102176.63;;;16.23;100.00
52535;BME280;38443;53.164;5.802;2023-10-09T11:13:00;102175.84;;;16.18;100.00
52535;BME280;38443;53.164;5.802;2023-10-09T11:15:36;102186.66;;;16.18;100.00
52535;BME280;38443;53.164;5.802;2023-10-09T11:18:21;102185.00;;;16.13;100.00
52535;BME280;38443;53.164;5.802;2023-10-09T11:20:55;102191.34;;;16.12;100.00
52535;BME280;38443;53.164;5.802;2023-10-09T11:23:24;102180.72;;;16.06;100.00
52535;BME280;38443;53.164;5.802;2023-10-09T11:25:59;102187.22;;;15.99;100.00
52535;BME280;38443;53.164;5.802;2023-10-09T11:31:39;102182.03;;;15.93;100.00
52535;BME280;38443;53.164;5.802;2023-10-09T11:34:17;102183.88;;;15.91;100.00
52535;BME280;38443;53.164;5.802;2023-10-09T11:36:54;102183.88;;;15.91;100.00
52535;BME280;38443;53.164;5.802;2023-10-09T11:39:26;102181.09;;;15.94;100.00
52535;BME280;38443;53.164;5.802;2023-10-09T11:42:18;102182.59;;;16.04;100.00
52535;BME280;38443;53.164;5.802;2023-10-09T11:45:00;102179.22;;;16.26;100.00
52535;BME280;38443;53.164;5.802;2023-10-09T11:47:34;102169.91;;;16.36;100.00
52535;BME280;38443;53.164;5.802;2023-10-09T11:50:00;102165.22;;;16.41;100.00
52535;BME280;38443;53.164;5.802;2023-10-09T11:52:26;102165.13;;;16.44;100.00
52535;BME280;38443;53.164;5.802;2023-10-09T11:55:05;102158.72;;;16.47;100.00
52535;BME280;38443;53.164;5.802;2023-10-09T11:57:41;102142.13;;;16.58;100.00
52535;BME280;38443;53.164;5.802;2023-10-09T12:00:07;102138.38;;;16.62;100.00
52535;BME280;38443;53.164;5.802;2023-10-09T12:02:51;102132.47;;;16.77;100.00
52535;BME280;38443;53.164;5.802;2023-10-09T12:05:17;102137.47;;;16.89;100.00
52535;BME280;38443;53.164;5.802;2023-10-09T12:07:45;102130.97;;;16.95;100.00
52535;BME280;38443;53.164;5.802;2023-10-09T12:10:10;102126.56;;;16.92;100.00
52535;BME280;38443;53.164;5.802;2023-10-09T12:12:39;102116.00;;;16.85;100.00
52535;BME280;38443;53.164;5.802;2023-10-09T12:15:06;102115.31;;;16.78;100.00
52535;BME280;38443;53.164;5.802;2023-10-09T12:17:31;102127.88;;;16.79;100.00
52535;BME280;38443;53.164;5.802;2023-10-09T12:19:57;102119.72;;;16.81;100.00
52535;BME280;38443;53.164;5.802;2023-10-09T12:22:23;102118.06;;;16.77;100.00
52535;BME280;38443;53.164;5.802;2023-10-09T12:24:52;102120.03;;;16.71;100.00
52535;BME280;38443;53.164;5.802;2023-10-09T12:27:18;102120.03;;;16.71;100.00
52535;BME280;38443;53.164;5.802;2023-10-09T12:29:45;102129.16;;;16.69;100.00
52535;BME280;38443;53.164;5.802;2023-10-09T12:32:11;102117.50;;;16.67;100.00
52535;BME280;38443;53.164;5.802;2023-10-09T12:34:36;102122.03;;;16.66;100.00
52535;BME280;38443;53.164;5.802;2023-10-09T12:37:03;102131.97;;;16.66;100.00
52535;BME280;38443;53.164;5.802;2023-10-09T12:39:29;102123.78;;;16.67;100.00
52535;BME280;38443;53.164;5.802;2023-10-09T12:41:59;102132.63;;;16.72;100.00
52535;BME280;38443;53.164;5.802;2023-10-09T12:44:34;102129.16;;;16.69;100.00
52535;BME280;38443;53.164;5.802;2023-10-09T12:47:05;102127.69;;;16.59;100.00
52535;BME280;38443;53.164;5.802;2023-10-09T12:49:31;102125.81;;;16.61;100.00
52535;BME280;38443;53.164;5.802;2023-10-09T12:51:56;102120.25;;;16.65;100.00
52535;BME280;38443;53.164;5.802;2023-10-09T12:54:24;102116.59;;;16.68;100.00
52535;BME280;38443;53.164;5.802;2023-10-09T12:56:52;102117.28;;;16.73;100.00
52535;BME280;38443;53.164;5.802;2023-10-09T12:59:18;102116.28;;;16.75;100.00
52535;BME280;38443;53.164;5.802;2023-10-09T13:01:45;102104.50;;;16.78;100.00
52535;BME280;38443;53.164;5.802;2023-10-09T13:04:11;102120.72;;;16.78;100.00
52535;BME280;38443;53.164;5.802;2023-10-09T13:06:38;102118.13;;;16.75;100.00
52535;BME280;38443;53.164;5.802;2023-10-09T13:09:10;102115.63;;;16.69;100.00
52535;BME280;38443;53.164;5.802;2023-10-09T13:11:35;102123.94;;;16.63;100.00
52535;BME280;38443;53.164;5.802;2023-10-09T13:14:02;102119.63;;;16.57;100.00
52535;BME280;38443;53.164;5.802;2023-10-09T13:16:37;102130.69;;;16.49;100.00
52535;BME280;38443;53.164;5.802;2023-10-09T13:19:02;102133.56;;;16.45;100.00
52535;BME280;38443;53.164;5.802;2023-10-09T13:21:35;102140.84;;;16.43;100.00
52535;BME280;38443;53.164;5.802;2023-10-09T13:24:03;102149.00;;;16.41;100.00
52535;BME280;38443;53.164;5.802;2023-10-09T13:26:29;102143.59;;;16.41;100.00
52535;BME280;38443;53.164;5.802;2023-10-09T13:28:59;102149.03;;;16.40;100.00
52535;BME280;38443;53.164;5.802;2023-10-09T13:31:26;102160.84;;;16.37;100.00
52535;BME280;38443;53.164;5.802;2023-10-09T13:33:55;102150.16;;;16.34;100.00